createdAt,value
2019-05-02T00:01:44.590Z,47.33
2019-05-02T00:04:23.160Z,47.43
2019-05-02T00:07:25.395Z,47.48
2019-05-02T00:10:08.760Z,47.60
2019-05-02T00:12:47.650Z,47.61
2019-05-02T00:15:33.153Z,47.63
2019-05-02T00:18:10.127Z,47.67
2019-05-02T00:20:47.956Z,47.67
2019-05-02T00:23:28.436Z,47.71
2019-05-02T00:26:24.808Z,47.90
2019-05-02T00:29:04.461Z,47.92
2019-05-02T00:31:50.225Z,47.94
2019-05-02T00:34:32.291Z,48.09
2019-05-02T00:37:18.725Z,48.21
2019-05-02T00:39:49.300Z,48.26
2019-05-02T00:42:46.254Z,48.34
2019-05-02T00:45:27.185Z,48.39
2019-05-02T00:48:05.680Z,48.31
2019-05-02T00:50:54.693Z,48.38
2019-05-02T00:53:48.369Z,48.54
2019-05-02T00:56:53.767Z,48.70
2019-05-02T00:59:27.931Z,48.75
2019-05-02T01:04:52.314Z,48.91
2019-05-02T01:07:26.944Z,48.94
2019-05-02T01:10:11.408Z,49.05
2019-05-02T01:12:54.863Z,49.15
2019-05-02T01:15:39.016Z,49.21
2019-05-02T01:18:44.737Z,49.28
2019-05-02T01:21:26.993Z,49.36
2019-05-02T01:24:02.988Z,49.31
2019-05-02T01:26:47.826Z,49.39
2019-05-02T01:29:41.157Z,49.50
2019-05-02T01:33:01.267Z,49.57
2019-05-02T01:36:11.328Z,49.60
2019-05-02T01:38:49.187Z,49.60
2019-05-02T01:41:29.192Z,49.58
2019-05-02T01:44:02.444Z,49.64
2019-05-02T01:46:42.348Z,49.74
2019-05-02T01:49:21.847Z,49.83
2019-05-02T01:51:58.579Z,49.87
2019-05-02T01:54:48.350Z,49.95
2019-05-02T01:57:34.831Z,50.05
2019-05-02T02:00:17.227Z,50.04
2019-05-02T02:03:12.294Z,50.06
2019-05-02T02:06:09.996Z,50.16
2019-05-02T02:08:44.131Z,50.10
2019-05-02T02:11:17.475Z,50.16
2019-05-02T02:13:49.339Z,50.23
2019-05-02T02:16:21.226Z,50.28
2019-05-02T02:19:04.100Z,50.35
2019-05-02T02:21:42.849Z,50.37
2019-05-02T02:24:43.747Z,50.30
2019-05-02T02:27:15.456Z,50.32
2019-05-02T02:29:56.544Z,50.27
2019-05-02T02:32:48.140Z,50.40
2019-05-02T02:35:23.966Z,50.51
2019-05-02T02:38:03.456Z,50.57
2019-05-02T02:40:42.907Z,50.71
2019-05-02T02:43:32.886Z,50.76
2019-05-02T02:46:14.830Z,50.83
2019-05-02T02:48:50.327Z,50.90
2019-05-02T02:51:24.030Z,50.85
2019-05-02T02:54:02.639Z,50.95
2019-05-02T02:56:40.720Z,51.09
2019-05-02T02:59:19.382Z,51.16
2019-05-02T03:01:46.221Z,51.20
2019-05-02T03:04:17.946Z,51.27
2019-05-02T03:06:50.095Z,51.27
2019-05-02T03:09:26.500Z,51.33
2019-05-02T03:12:12.990Z,51.37
2019-05-02T03:14:52.717Z,51.42
2019-05-02T03:17:26.675Z,51.40
2019-05-02T03:20:01.236Z,51.41
2019-05-02T03:22:41.805Z,51.45
2019-05-02T03:25:27.059Z,51.46
2019-05-02T03:27:58.096Z,51.54
2019-05-02T03:30:38.127Z,51.52
2019-05-02T03:33:18.435Z,51.59
2019-05-02T03:35:52.085Z,51.58
2019-05-02T03:38:43.460Z,51.63
2019-05-02T03:41:23.466Z,51.73
2019-05-02T03:44:11.370Z,51.73
2019-05-02T03:46:37.376Z,51.81
2019-05-02T03:49:48.521Z,51.85
2019-05-02T03:52:43.357Z,51.93
2019-05-02T03:55:15.212Z,51.86
2019-05-02T03:57:52.526Z,51.92
2019-05-02T04:00:24.590Z,52.01
2019-05-02T04:03:02.512Z,52.08
2019-05-02T04:05:40.465Z,52.18
2019-05-02T04:08:21.272Z,52.27
2019-05-02T04:11:37.842Z,52.28
2019-05-02T04:14:14.756Z,52.30
2019-05-02T04:16:48.694Z,52.25
2019-05-02T04:19:35.031Z,52.25
2019-05-02T04:22:11.781Z,52.26
2019-05-02T04:24:47.746Z,52.27
2019-05-02T04:27:17.018Z,52.24
2019-05-02T04:29:55.031Z,52.30
2019-05-02T04:32:34.163Z,52.34
2019-05-02T04:35:07.181Z,52.40
2019-05-02T04:37:48.747Z,52.44
2019-05-02T04:40:47.212Z,52.48
2019-05-02T04:43:51.483Z,52.47
2019-05-02T04:46:26.985Z,52.52
2019-05-02T04:48:55.215Z,52.54
2019-05-02T04:51:31.987Z,52.60
2019-05-02T04:54:03.944Z,52.62
2019-05-02T04:56:49.502Z,52.63
2019-05-02T04:59:23.020Z,52.69
2019-05-02T05:01:57.608Z,52.69
2019-05-02T05:04:27.698Z,52.74
2019-05-02T05:07:08.945Z,52.78
2019-05-02T05:09:40.441Z,52.80
2019-05-02T05:12:12.370Z,52.81
2019-05-02T05:14:47.530Z,52.83
2019-05-02T05:17:20.139Z,52.84
2019-05-02T05:19:52.493Z,52.84
2019-05-02T05:22:28.360Z,52.83
2019-05-02T05:25:17.736Z,52.88
2019-05-02T05:27:52.636Z,52.91
2019-05-02T05:30:23.113Z,52.88
2019-05-02T05:32:54.982Z,52.88
2019-05-02T05:35:28.230Z,52.89
2019-05-02T05:38:00.993Z,52.87
2019-05-02T05:40:32.696Z,52.87
2019-05-02T05:43:20.618Z,52.89
2019-05-02T05:45:56.339Z,52.90
2019-05-02T05:48:27.407Z,52.85
2019-05-02T05:50:59.535Z,52.86
2019-05-02T05:53:31.539Z,52.89
2019-05-02T05:56:03.607Z,52.88
2019-05-02T05:58:39.756Z,52.91
2019-05-02T06:01:10.255Z,52.89
2019-05-02T06:03:44.992Z,52.85
2019-05-02T06:06:22.870Z,52.83
2019-05-02T06:08:53.583Z,52.88
2019-05-02T06:11:22.570Z,53.00
2019-05-02T06:13:54.476Z,53.02
2019-05-02T06:16:26.462Z,53.05
2019-05-02T06:18:58.168Z,53.07
2019-05-02T06:21:31.869Z,53.11
2019-05-02T06:24:03.688Z,53.14
2019-05-02T06:26:35.531Z,53.41
2019-05-02T06:29:07.376Z,53.71
2019-05-02T06:31:43.155Z,53.88
2019-05-02T06:34:12.836Z,53.82
2019-05-02T06:36:44.536Z,53.75
2019-05-02T06:39:16.410Z,53.76
2019-05-02T06:41:52.115Z,53.74
2019-05-02T06:44:23.974Z,53.47
2019-05-02T06:46:59.206Z,53.40
2019-05-02T06:49:28.604Z,53.40
2019-05-02T06:52:00.268Z,53.12
2019-05-02T06:54:32.137Z,52.84
2019-05-02T06:57:04.075Z,52.66
2019-05-02T06:59:36.186Z,52.50
2019-05-02T07:02:08.080Z,52.33
2019-05-02T07:04:40.344Z,52.27
2019-05-02T07:07:13.178Z,52.20
2019-05-02T07:09:45.957Z,52.11
2019-05-02T07:12:18.063Z,52.04
2019-05-02T07:14:50.012Z,51.90
2019-05-02T07:17:38.289Z,51.77
2019-05-02T07:20:09.871Z,51.71
2019-05-02T07:22:41.772Z,51.64
2019-05-02T07:25:16.169Z,51.58
2019-05-02T07:27:48.071Z,51.52
2019-05-02T07:30:20.320Z,51.46
2019-05-02T07:32:56.300Z,51.44
2019-05-02T07:35:26.174Z,51.41
2019-05-02T07:37:57.985Z,51.39
2019-05-02T07:40:31.044Z,51.37
2019-05-02T07:43:02.731Z,51.37
2019-05-02T07:45:34.651Z,51.35
2019-05-02T07:48:06.996Z,51.31
2019-05-02T07:50:41.147Z,51.22
2019-05-02T07:53:16.129Z,51.08
2019-05-02T07:55:49.298Z,50.99
2019-05-02T07:58:21.116Z,50.94
2019-05-02T08:00:53.442Z,50.88
2019-05-02T08:03:29.473Z,50.77
2019-05-02T08:05:59.908Z,50.69
2019-05-02T08:08:31.971Z,50.54
2019-05-02T08:11:04.740Z,50.42
2019-05-02T08:13:36.816Z,50.38
2019-05-02T08:16:08.526Z,50.38
2019-05-02T08:18:40.222Z,50.32
2019-05-02T08:21:12.578Z,50.18
2019-05-02T08:23:44.491Z,49.95
2019-05-02T08:26:21.487Z,49.81
2019-05-02T08:28:55.172Z,49.72
2019-05-02T08:31:30.026Z,49.65
2019-05-02T08:34:05.209Z,49.59
2019-05-02T08:36:34.293Z,49.42
2019-05-02T08:39:08.122Z,49.36
2019-05-02T08:41:40.618Z,49.20
2019-05-02T08:44:16.835Z,49.04
2019-05-02T08:46:50.860Z,48.88
2019-05-02T08:49:20.119Z,48.74
2019-05-02T08:51:51.977Z,48.51
2019-05-02T08:54:28.073Z,48.33
2019-05-02T08:57:06.334Z,48.24
2019-05-02T08:59:41.244Z,48.08
2019-05-02T09:02:13.214Z,48.00
2019-05-02T09:05:04.516Z,47.72
2019-05-02T09:07:37.162Z,47.73
2019-05-02T09:10:21.826Z,47.68
2019-05-02T09:12:52.063Z,47.61
2019-05-02T09:15:24.013Z,47.57
2019-05-02T09:17:56.649Z,47.51
2019-05-02T09:20:29.221Z,47.40
2019-05-02T09:23:01.752Z,47.33
2019-05-02T09:25:33.585Z,47.17
2019-05-02T09:28:06.306Z,47.00
2019-05-02T09:30:38.009Z,46.75
2019-05-02T09:33:11.672Z,46.79
2019-05-02T09:35:43.868Z,46.76
2019-05-02T09:38:16.385Z,46.64
2019-05-02T09:40:54.611Z,46.46
2019-05-02T09:43:22.950Z,46.35
2019-05-02T09:45:54.763Z,46.23
2019-05-02T09:48:27.261Z,46.11
2019-05-02T09:51:06.002Z,46.08
2019-05-02T09:53:32.519Z,46.00
2019-05-02T09:56:04.234Z,45.87
2019-05-02T09:58:36.687Z,45.70
2019-05-02T10:01:15.255Z,45.68
2019-05-02T10:03:47.371Z,45.60
2019-05-02T10:06:19.112Z,45.62
2019-05-02T10:08:51.964Z,45.62
2019-05-02T10:11:26.069Z,45.55
2019-05-02T10:13:58.245Z,45.30
2019-05-02T10:16:31.902Z,45.14
2019-05-02T10:19:09.495Z,44.93
2019-05-02T10:21:36.913Z,44.78
2019-05-02T10:24:08.777Z,44.79
2019-05-02T10:26:41.941Z,44.73
2019-05-02T10:29:14.779Z,44.62
2019-05-02T10:31:46.875Z,44.54
2019-05-02T10:34:19.152Z,44.44
2019-05-02T10:36:54.146Z,44.17
2019-05-02T10:39:28.459Z,44.03
2019-05-02T10:41:58.083Z,44.01
2019-05-02T10:44:32.831Z,43.96
2019-05-02T10:47:04.175Z,43.83
2019-05-02T10:49:55.498Z,43.81
2019-05-02T10:52:34.047Z,43.71
2019-05-02T10:55:02.674Z,43.59
2019-05-02T10:57:34.482Z,43.56
2019-05-02T11:00:09.298Z,43.51
2019-05-02T11:03:05.730Z,43.41
2019-05-02T11:05:39.312Z,43.31
2019-05-02T11:08:12.005Z,43.35
2019-05-02T11:10:44.656Z,43.19
2019-05-02T11:13:38.024Z,43.23
2019-05-02T11:16:35.625Z,43.23
2019-05-02T11:19:13.249Z,43.08
2019-05-02T11:21:55.784Z,42.98
2019-05-02T11:24:19.102Z,42.99
2019-05-02T11:26:52.837Z,42.88
2019-05-02T11:29:24.613Z,42.76
2019-05-02T11:31:57.283Z,42.43
2019-05-02T11:34:29.013Z,42.52
2019-05-02T11:37:01.758Z,42.44
2019-05-02T11:39:43.733Z,42.32
2019-05-02T11:42:08.161Z,42.24
2019-05-02T11:44:41.758Z,42.05
2019-05-02T11:47:17.293Z,42.04
2019-05-02T11:49:52.100Z,41.78
2019-05-02T11:52:22.614Z,41.73
2019-05-02T11:54:54.450Z,41.70
2019-05-02T11:57:28.481Z,41.55
2019-05-02T12:00:04.947Z,41.44
2019-05-02T12:03:02.272Z,41.18
2019-05-02T12:05:43.373Z,41.17
2019-05-02T12:08:15.988Z,41.08
2019-05-02T12:10:48.093Z,41.02
2019-05-02T12:13:20.304Z,40.95
2019-05-02T12:15:52.437Z,40.89
2019-05-02T12:18:24.872Z,40.88
2019-05-02T12:20:57.006Z,40.99
2019-05-02T12:23:29.114Z,41.03
2019-05-02T12:26:02.733Z,41.11
2019-05-02T12:28:34.597Z,40.99
2019-05-02T12:31:08.091Z,41.02
2019-05-02T12:33:42.682Z,40.79
2019-05-02T12:36:14.587Z,40.64
2019-05-02T12:38:46.292Z,40.58
2019-05-02T12:41:21.985Z,40.34
2019-05-02T12:43:52.437Z,40.13
2019-05-02T12:46:24.360Z,40.14
2019-05-02T12:48:56.370Z,40.06
2019-05-02T12:51:28.731Z,40.02
2019-05-02T12:54:02.245Z,39.90
2019-05-02T12:56:34.289Z,39.87
2019-05-02T12:59:06.179Z,40.00
2019-05-02T13:01:37.988Z,39.83
2019-05-02T13:04:12.431Z,39.62
2019-05-02T13:06:44.486Z,39.55
2019-05-02T13:09:17.028Z,39.46
2019-05-02T13:12:02.870Z,39.27
2019-05-02T13:14:35.504Z,39.13
2019-05-02T13:17:07.618Z,38.82
2019-05-02T13:19:41.404Z,38.68
2019-05-02T13:22:32.521Z,38.60
2019-05-02T13:25:10.315Z,38.48
2019-05-02T13:27:44.229Z,38.45
2019-05-02T13:30:24.649Z,38.38
2019-05-02T13:33:02.503Z,38.43
2019-05-02T13:35:39.677Z,38.52
2019-05-02T13:38:13.018Z,38.31
2019-05-02T13:40:45.842Z,37.92
2019-05-02T13:43:19.280Z,37.87
2019-05-02T13:46:14.961Z,37.82
2019-05-02T13:48:47.355Z,37.76
2019-05-02T13:51:19.183Z,37.60
2019-05-02T13:54:02.249Z,37.35
2019-05-02T13:56:52.881Z,37.21
2019-05-02T13:59:24.858Z,37.09
2019-05-02T14:01:56.928Z,36.97
2019-05-02T14:04:28.712Z,36.74
2019-05-02T14:07:02.783Z,36.74
2019-05-02T14:09:44.044Z,36.71
2019-05-02T14:12:47.463Z,36.50
2019-05-02T14:15:22.492Z,36.40
2019-05-02T14:17:54.250Z,36.27
2019-05-02T14:20:26.446Z,36.02
2019-05-02T14:22:58.344Z,35.66
2019-05-02T14:25:32.205Z,35.68
2019-05-02T14:28:03.761Z,35.60
2019-05-02T14:30:40.034Z,35.56
2019-05-02T14:33:15.226Z,35.44
2019-05-02T14:35:47.042Z,35.36
2019-05-02T14:38:18.773Z,35.12
2019-05-02T14:41:21.848Z,34.75
2019-05-02T14:43:56.940Z,34.78
2019-05-02T14:46:34.291Z,34.68
2019-05-02T14:49:02.945Z,34.50
2019-05-02T14:51:36.723Z,34.49
2019-05-02T14:54:09.745Z,34.45
2019-05-02T14:56:58.531Z,34.48
2019-05-02T14:59:32.146Z,34.50
2019-05-02T15:02:07.888Z,34.46
2019-05-02T15:04:44.669Z,34.30
2019-05-02T15:07:17.584Z,34.29
2019-05-02T15:09:46.747Z,34.32
2019-05-02T15:12:19.109Z,34.26
2019-05-02T15:14:57.373Z,34.23
2019-05-02T15:17:27.974Z,34.19
2019-05-02T15:19:58.238Z,34.38
2019-05-02T15:22:33.095Z,34.41
2019-05-02T15:25:08.023Z,34.49
2019-05-02T15:27:41.837Z,34.47
2019-05-02T15:30:15.995Z,34.60
2019-05-02T15:33:05.288Z,34.73
2019-05-02T15:35:57.297Z,34.80
2019-05-02T15:38:28.444Z,34.84
2019-05-02T15:41:15.385Z,35.37
2019-05-02T15:43:49.225Z,36.09
2019-05-02T15:46:23.699Z,36.86
2019-05-02T15:48:57.193Z,37.50
2019-05-02T15:51:28.382Z,37.94
2019-05-02T15:54:08.513Z,38.21
2019-05-02T15:56:59.910Z,38.60
2019-05-02T15:59:42.332Z,39.19
2019-05-02T16:02:13.079Z,39.84
2019-05-02T16:04:45.100Z,40.43
2019-05-02T16:07:16.889Z,41.05
2019-05-02T16:09:51.620Z,41.74
2019-05-02T16:12:27.072Z,42.22
2019-05-02T16:14:56.400Z,42.91
2019-05-02T16:17:29.302Z,43.30
2019-05-02T16:20:10.887Z,43.83
2019-05-02T16:22:46.280Z,44.51
2019-05-02T16:25:20.048Z,44.91
2019-05-02T16:27:49.723Z,45.28
2019-05-02T16:30:23.832Z,45.63
2019-05-02T16:32:58.007Z,45.84
2019-05-02T16:35:31.587Z,45.99
2019-05-02T16:38:03.393Z,46.17
2019-05-02T16:40:35.485Z,46.21
2019-05-02T16:43:08.461Z,46.27
2019-05-02T16:45:41.682Z,46.37
2019-05-02T16:48:13.941Z,46.45
2019-05-02T16:50:45.910Z,46.65
2019-05-02T16:53:22.593Z,46.62
2019-05-02T16:55:53.551Z,46.70
2019-05-02T16:58:24.997Z,46.72
2019-05-02T17:00:57.695Z,46.84
2019-05-02T17:03:31.498Z,46.91
2019-05-02T17:06:03.231Z,47.03
2019-05-02T17:08:49.459Z,47.10
2019-05-02T17:11:34.497Z,47.18
2019-05-02T17:14:07.051Z,47.16
2019-05-02T17:16:37.177Z,47.17
2019-05-02T17:19:08.995Z,47.35
2019-05-02T17:21:53.111Z,47.50
2019-05-02T17:24:17.329Z,47.55
2019-05-02T17:26:48.562Z,47.69
2019-05-02T17:29:22.651Z,47.79
2019-05-02T17:31:59.117Z,47.90
2019-05-02T17:34:30.617Z,47.94
2019-05-02T17:37:06.259Z,47.99
2019-05-02T17:39:37.250Z,48.05
2019-05-02T17:42:10.153Z,48.14
2019-05-02T17:44:43.850Z,48.23
2019-05-02T17:47:15.606Z,48.33
2019-05-02T17:49:47.633Z,48.53
2019-05-02T17:52:42.648Z,48.60
2019-05-02T17:55:15.098Z,48.76
2019-05-02T17:58:16.116Z,48.80
2019-05-02T18:00:54.475Z,49.01
2019-05-02T18:03:30.728Z,49.03
2019-05-02T18:05:57.172Z,49.15
2019-05-02T18:08:29.055Z,49.34
2019-05-02T18:11:02.847Z,49.43
2019-05-02T18:13:35.438Z,49.50
2019-05-02T18:16:12.677Z,49.53
2019-05-02T18:18:43.718Z,49.58
2019-05-02T18:21:17.243Z,49.63
2019-05-02T18:23:57.077Z,49.72
2019-05-02T18:26:27.557Z,49.84
2019-05-02T18:29:05.030Z,49.90
2019-05-02T18:31:34.781Z,50.02
2019-05-02T18:34:06.659Z,50.07
2019-05-02T18:36:38.564Z,50.11
2019-05-02T18:39:12.862Z,50.26
2019-05-02T18:41:46.300Z,50.30
2019-05-02T18:44:18.794Z,50.42
2019-05-02T18:46:51.912Z,50.43
2019-05-02T18:49:23.887Z,50.57
2019-05-02T18:51:57.462Z,50.79
2019-05-02T18:54:29.467Z,50.90
2019-05-02T18:57:02.488Z,50.94
2019-05-02T18:59:34.479Z,50.99
2019-05-02T19:02:06.370Z,51.13
2019-05-02T19:04:39.848Z,51.20
2019-05-02T19:07:12.969Z,51.32
2019-05-02T19:09:58.848Z,51.40
2019-05-02T19:12:42.048Z,51.42
2019-05-02T19:15:14.345Z,51.49
2019-05-02T19:17:46.575Z,51.56
2019-05-02T19:20:37.987Z,51.76
2019-05-02T19:23:12.343Z,51.85
2019-05-02T19:25:44.436Z,51.92
2019-05-02T19:28:19.764Z,52.06
2019-05-02T19:30:51.982Z,52.22
2019-05-02T19:33:23.832Z,52.28
2019-05-02T19:35:55.709Z,52.36
2019-05-02T19:38:27.565Z,52.49
2019-05-02T19:41:05.396Z,52.54
2019-05-02T19:43:34.938Z,52.61
2019-05-02T19:46:17.079Z,52.60
2019-05-02T19:48:51.530Z,52.60
2019-05-02T19:51:23.692Z,52.62
2019-05-02T19:54:12.197Z,52.77
2019-05-02T19:57:04.691Z,52.83
2019-05-02T19:59:37.139Z,52.79
2019-05-02T20:02:11.903Z,52.87
2019-05-02T20:04:46.560Z,53.01
2019-05-02T20:07:22.664Z,53.13
2019-05-02T20:10:01.894Z,53.29
2019-05-02T20:12:40.973Z,53.42
2019-05-02T20:15:25.435Z,53.45
2019-05-02T20:18:09.686Z,53.53
2019-05-02T20:20:51.979Z,53.52
2019-05-02T20:23:35.647Z,53.66
2019-05-02T20:26:09.488Z,53.78
2019-05-02T20:28:53.875Z,53.86
2019-05-02T20:31:25.913Z,54.04
2019-05-02T20:34:15.816Z,54.12
2019-05-02T20:36:55.191Z,54.26
2019-05-02T20:39:29.308Z,54.30
2019-05-02T20:42:07.932Z,54.40
2019-05-02T20:44:46.709Z,54.56
2019-05-02T20:47:44.746Z,54.67
2019-05-02T20:50:22.400Z,54.75
2019-05-02T20:53:05.654Z,54.74
2019-05-02T20:55:56.124Z,54.84
2019-05-02T20:58:35.776Z,54.85
2019-05-02T21:01:21.095Z,54.90
2019-05-02T21:04:04.922Z,55.00
2019-05-02T21:06:53.581Z,55.01
2019-05-02T21:09:52.459Z,55.14
2019-05-02T21:12:50.138Z,55.21
2019-05-02T21:15:44.669Z,55.28
2019-05-02T21:18:27.313Z,55.33
2019-05-02T21:21:09.567Z,55.43
2019-05-02T21:23:56.545Z,55.46
2019-05-02T21:26:41.989Z,55.54
2019-05-02T21:29:19.487Z,55.60
2019-05-02T21:31:59.523Z,55.69
2019-05-02T21:34:47.451Z,55.81
2019-05-02T21:37:27.698Z,55.85
2019-05-02T21:40:08.684Z,55.91
2019-05-02T21:42:59.294Z,55.94
2019-05-02T21:45:49.128Z,55.97
2019-05-02T21:48:33.342Z,56.00
2019-05-02T21:51:36.440Z,56.06
2019-05-02T21:54:37.212Z,56.11
2019-05-02T21:57:17.364Z,56.17
2019-05-02T21:59:52.963Z,56.20
2019-05-02T22:02:29.752Z,56.26
2019-05-02T22:05:08.269Z,56.36
2019-05-02T22:07:43.764Z,56.43
2019-05-02T22:10:28.671Z,56.56
2019-05-02T22:13:18.026Z,56.66
2019-05-02T22:15:53.717Z,56.67
2019-05-02T22:18:29.055Z,56.68
2019-05-02T22:21:07.276Z,56.76
2019-05-02T22:24:10.524Z,56.80
2019-05-02T22:26:37.230Z,56.88
2019-05-02T22:29:14.652Z,56.85
2019-05-02T22:32:15.283Z,56.91
2019-05-02T22:34:55.845Z,56.92
2019-05-02T22:38:18.322Z,56.94
2019-05-02T22:41:03.544Z,57.06
2019-05-02T22:43:53.964Z,57.00
2019-05-02T22:46:49.085Z,57.12
2019-05-02T22:49:29.365Z,57.20
2019-05-02T22:52:06.789Z,57.30
2019-05-02T22:54:42.851Z,57.48
2019-05-02T22:57:20.073Z,57.54
2019-05-02T23:00:01.776Z,57.67
2019-05-02T23:02:41.892Z,57.76
2019-05-02T23:05:14.072Z,57.79
2019-05-02T23:07:46.096Z,57.88
2019-05-02T23:10:17.928Z,57.93
2019-05-02T23:13:12.928Z,57.94
2019-05-02T23:15:42.679Z,57.98
2019-05-02T23:18:20.392Z,58.01
2019-05-02T23:21:02.127Z,58.04
2019-05-02T23:23:52.269Z,58.10
2019-05-02T23:26:59.127Z,58.12
2019-05-02T23:29:58.368Z,58.16
2019-05-02T23:32:55.802Z,58.11
2019-05-02T23:35:49.671Z,58.08
2019-05-02T23:38:32.348Z,58.09
2019-05-02T23:41:29.810Z,58.06
2019-05-02T23:44:12.314Z,58.12
2019-05-02T23:46:54.460Z,58.10
2019-05-02T23:52:47.753Z,58.25
2019-05-02T23:55:42.326Z,58.22
2019-05-02T23:58:22.495Z,58.30
